Time;durP1;ratioP1;P1;durP2;ratioP2;P2;SDS_P1;SDS_P2;PMS_P1;PMS_P2;Temp;Humidity;BMP_temperature;BMP_pressure;BME280_temperature;BME280_humidity;BME280_pressure;Samples;Min_cycle;Max_cycle;Signal;HPM_P1;HPM_P2
2022/08/22 00:02:13;;;;;;;9.05;2.75;;;;;;;12.85;100.00;100538.47;4997331;28;20041;-78
2022/08/22 00:04:44;;;;;;;7.13;2.53;;;;;;;12.75;100.00;100539.66;4996036;28;20068;-79
2022/08/22 00:07:33;;;;;;;6.05;2.53;;;;;;;12.64;100.00;100531.25;4999195;28;20049;-78
2022/08/22 00:10:11;;;;;;;7.65;2.88;;;;;;;12.38;100.00;100499.50;5000373;28;20030;-78
2022/08/22 00:12:45;;;;;;;9.07;2.45;;;;;;;12.42;100.00;100523.19;5000587;28;20069;-78
2022/08/22 00:15:31;;;;;;;6.50;3.13;;;;;;;12.36;100.00;100521.28;4991591;28;20034;-78
2022/08/22 00:18:11;;;;;;;6.85;2.78;;;;;;;12.35;100.00;100510.66;4966650;28;20087;-78
2022/08/22 00:21:09;;;;;;;9.75;2.90;;;;;;;12.45;100.00;100511.19;5003658;28;20116;-78
2022/08/22 00:24:13;;;;;;;9.35;2.92;;;;;;;12.54;100.00;100505.47;5004347;28;20097;-79
2022/08/22 00:26:45;;;;;;;10.57;3.10;;;;;;;12.51;100.00;100468.06;4984572;28;20041;-78
2022/08/22 00:29:21;;;;;;;12.75;3.42;;;;;;;13.00;100.00;100504.13;4998925;28;20030;-78
2022/08/22 00:31:55;;;;;;;10.43;3.45;;;;;;;13.07;100.00;100483.41;4966479;28;20132;-78
2022/08/22 00:34:49;;;;;;;5.70;3.08;;;;;;;13.29;100.00;100494.16;5000241;28;20049;-78
2022/08/22 00:37:25;;;;;;;12.60;2.75;;;;;;;13.25;100.00;100480.16;4995138;28;20474;-79
2022/08/22 00:40:09;;;;;;;8.70;2.72;;;;;;;13.32;100.00;100477.53;4985845;28;20037;-78
2022/08/22 00:42:43;;;;;;;4.38;2.45;;;;;;;13.31;100.00;100478.56;4982561;28;20133;-79
2022/08/22 00:45:33;;;;;;;6.05;2.65;;;;;;;13.22;100.00;100485.97;4971648;28;20104;-78
2022/08/22 00:48:54;;;;;;;6.75;2.72;;;;;;;13.27;100.00;100510.53;4996094;28;20219;-78
2022/08/22 00:51:39;;;;;;;8.00;3.00;;;;;;;13.36;100.00;100513.91;4936706;28;1269986;-78
2022/08/22 00:54:19;;;;;;;6.82;3.20;;;;;;;13.36;100.00;100501.25;5007506;28;20044;-78
2022/08/22 00:57:10;;;;;;;7.35;3.33;;;;;;;13.43;100.00;100498.56;5000769;28;20073;-78
2022/08/22 00:59:50;;;;;;;6.63;2.92;;;;;;;13.30;100.00;100466.09;4997298;28;20033;-78
2022/08/22 01:03:04;;;;;;;10.30;3.00;;;;;;;13.37;100.00;100477.78;4985119;28;20037;-78
2022/08/22 01:05:39;;;;;;;7.85;2.95;;;;;;;13.36;100.00;100455.34;4986018;28;20104;-78
2022/08/22 01:08:16;;;;;;;10.40;3.05;;;;;;;13.42;100.00;100456.41;5000986;28;20521;-79
2022/08/22 01:11:27;;;;;;;8.65;2.95;;;;;;;13.45;100.00;100469.50;4994928;28;20488;-79
2022/08/22 01:13:59;;;;;;;9.35;3.10;;;;;;;13.50;100.00;100460.78;4998133;28;20038;-78
2022/08/22 01:17:07;;;;;;;14.80;3.80;;;;;;;13.69;100.00;100465.41;4983517;28;20070;-78
2022/08/22 01:19:54;;;;;;;7.80;3.00;;;;;;;13.78;100.00;100469.59;4993228;28;20029;-78
2022/08/22 01:22:44;;;;;;;9.80;3.42;;;;;;;13.79;100.00;100465.03;5007971;28;20022;-79
2022/08/22 01:25:37;;;;;;;8.90;3.40;;;;;;;13.74;100.00;100465.66;4967798;28;20041;-78
2022/08/22 01:28:26;;;;;;;9.50;3.05;;;;;;;13.72;100.00;100462.31;5002147;28;20648;-78
2022/08/22 01:31:11;;;;;;;16.63;4.05;;;;;;;13.75;100.00;100455.66;4987004;28;20046;-78
2022/08/22 01:33:58;;;;;;;10.07;3.72;;;;;;;13.80;100.00;100451.31;4997329;28;20085;-78
2022/08/22 01:36:31;;;;;;;9.52;3.35;;;;;;;13.84;100.00;100440.94;5003286;28;20371;-78
2022/08/22 01:39:06;;;;;;;;;;;;;;;13.84;100.00;100451.75;4988397;28;20030;-78
2022/08/22 01:41:50;;;;;;;9.65;3.28;;;;;;;13.86;100.00;100452.34;4986109;28;19948;-78
2022/08/22 01:44:52;;;;;;;6.65;3.53;;;;;;;13.87;100.00;100445.94;5003203;28;20054;-78
2022/08/22 01:47:38;;;;;;;10.10;3.50;;;;;;;13.95;100.00;100456.53;5002513;28;20056;-78
2022/08/22 01:50:18;;;;;;;10.65;4.28;;;;;;;14.03;100.00;100450.94;4983691;28;20046;-78
2022/08/22 01:52:50;;;;;;;7.10;3.55;;;;;;;14.12;100.00;100448.03;4983266;28;20034;-79
2022/08/22 01:55:31;;;;;;;8.88;4.18;;;;;;;14.20;100.00;100448.66;4987011;28;20037;-77
2022/08/22 01:57:59;;;;;;;10.45;4.50;;;;;;;14.25;100.00;100446.16;4997589;28;20045;-78
2022/08/22 02:00:26;;;;;;;8.63;4.63;;;;;;;14.32;100.00;100440.78;4982249;28;20477;-78
2022/08/22 02:03:21;;;;;;;10.70;4.28;;;;;;;14.43;100.00;100429.31;4988844;28;20441;-78
2022/08/22 02:06:10;;;;;;;10.43;4.70;;;;;;;14.55;100.00;100426.81;4984825;28;20042;-77
2022/08/22 02:08:50;;;;;;;9.32;4.43;;;;;;;14.63;100.00;100436.59;4995648;28;21922;-78
2022/08/22 02:11:59;;;;;;;8.13;4.40;;;;;;;14.68;100.00;100429.50;5003502;28;20041;-78
2022/08/22 02:14:31;;;;;;;11.70;5.10;;;;;;;14.75;100.00;100431.41;4997623;28;20137;-77
2022/08/22 02:17:46;;;;;;;12.57;5.43;;;;;;;14.80;100.00;100420.78;4984322;28;20437;-78
2022/08/22 02:20:44;;;;;;;11.25;5.50;;;;;;;14.58;100.00;100368.75;4990491;28;20283;-78
2022/08/22 02:23:47;;;;;;;12.55;4.85;;;;;;;14.86;100.00;100411.78;4993415;28;20041;-78
2022/08/22 02:27:08;;;;;;;10.20;5.47;;;;;;;14.71;100.00;100423.72;4987111;28;20112;-78
2022/08/22 02:29:50;;;;;;;11.98;5.30;;;;;;;14.54;100.00;100413.53;5008070;28;20049;-78
2022/08/22 02:32:24;;;;;;;13.73;5.35;;;;;;;14.48;100.00;100407.06;4967599;28;20077;-79
2022/08/22 02:35:05;;;;;;;11.35;5.43;;;;;;;14.44;100.00;100408.50;4980802;28;20037;-78
2022/08/22 02:38:05;;;;;;;10.93;5.45;;;;;;;14.40;100.00;100408.09;4976226;28;20033;-78
2022/08/22 02:40:38;;;;;;;8.65;4.22;;;;;;;14.43;100.00;100410.38;4995548;28;20034;-78
2022/08/22 02:43:29;;;;;;;9.32;5.40;;;;;;;14.41;100.00;100396.22;4982630;28;20034;-78
2022/08/22 02:46:02;;;;;;;13.30;5.57;;;;;;;14.49;100.00;100395.19;4980222;28;20041;-78
2022/08/22 02:48:48;;;;;;;;;;;;;;;14.51;100.00;100398.53;4995308;28;20338;-77
2022/08/22 02:51:37;;;;;;;10.60;5.50;;;;;;;14.50;100.00;100394.97;4979170;28;19921;-77
2022/08/22 02:54:19;;;;;;;9.48;4.90;;;;;;;14.51;100.00;100401.22;4997759;28;20041;-78
2022/08/22 02:57:08;;;;;;;13.67;5.30;;;;;;;14.39;100.00;100387.50;4980093;28;20037;-79
2022/08/22 02:59:54;;;;;;;11.05;5.35;;;;;;;14.33;100.00;100395.63;4964564;28;20030;-78
2022/08/22 03:02:41;;;;;;;11.20;4.88;;;;;;;14.27;100.00;100397.28;4993208;28;20033;-78
2022/08/22 03:05:22;;;;;;;7.82;4.45;;;;;;;14.14;100.00;100387.31;4999234;28;20101;-78
2022/08/22 03:07:58;;;;;;;10.80;4.83;;;;;;;14.04;100.00;100381.47;4978404;28;20496;-78
2022/08/22 03:10:34;;;;;;;9.35;4.90;;;;;;;13.96;100.00;100382.50;4983499;28;20279;-77
2022/08/22 03:13:07;;;;;;;10.82;5.03;;;;;;;13.92;100.00;100384.00;4999765;28;20480;-77
2022/08/22 03:15:39;;;;;;;14.70;5.78;;;;;;;13.90;100.00;100375.25;4978851;28;20103;-77
2022/08/22 03:18:11;;;;;;;14.05;6.03;;;;;;;13.88;100.00;100374.63;5005424;28;20060;-76
2022/08/22 03:20:57;;;;;;;11.52;5.05;;;;;;;13.82;100.00;100372.75;4983991;28;20091;-75
2022/08/22 03:23:38;;;;;;;9.82;5.07;;;;;;;13.82;100.00;100376.28;4986019;28;20523;-76
2022/08/22 03:26:23;;;;;;;13.80;5.65;;;;;;;13.80;100.00;100374.81;4995967;28;20038;-76
2022/08/22 03:28:59;;;;;;;13.30;4.28;;;;;;;13.80;100.00;100375.66;4998743;28;20033;-75
2022/08/22 03:31:26;;;;;;;14.85;6.00;;;;;;;13.79;100.00;100368.59;4970926;28;20058;-76
2022/08/22 03:34:14;;;;;;;11.98;5.28;;;;;;;13.81;100.00;100371.06;4962584;28;20046;-76
2022/08/22 03:36:47;;;;;;;12.48;5.97;;;;;;;13.77;100.00;100357.16;4987129;28;20050;-76
2022/08/22 03:39:17;;;;;;;12.73;5.53;;;;;;;13.75;100.00;100350.28;5004090;28;20080;-76
2022/08/22 03:41:52;;;;;;;14.40;6.00;;;;;;;13.79;100.00;100352.38;4970367;28;20859;-75
2022/08/22 03:44:21;;;;;;;14.27;5.50;;;;;;;13.71;100.00;100338.25;4999016;28;20026;-76
2022/08/22 03:47:08;;;;;;;11.52;4.75;;;;;;;13.79;100.00;100352.38;4979591;28;20053;-76
2022/08/22 03:50:18;;;;;;;10.82;4.57;;;;;;;13.76;100.00;100341.97;4969297;28;20036;-77
2022/08/22 03:53:08;;;;;;;11.43;5.10;;;;;;;13.80;100.00;100336.97;4973840;28;20105;-77
2022/08/22 03:55:46;;;;;;;11.23;4.70;;;;;;;13.80;100.00;100334.28;5000196;28;20506;-77
2022/08/22 03:58:34;;;;;;;10.52;5.03;;;;;;;13.68;100.00;100311.59;4996953;28;20092;-77
2022/08/22 04:01:44;;;;;;;11.48;4.47;;;;;;;13.78;100.00;100328.25;4994059;28;20033;-78
2022/08/22 04:04:10;;;;;;;15.18;4.22;;;;;;;13.80;100.00;100332.41;5008371;28;20057;-77
2022/08/22 04:07:13;;;;;;;12.05;5.68;;;;;;;13.80;100.00;100326.19;4996491;28;20476;-78
2022/08/22 04:10:24;;;;;;;14.57;4.85;;;;;;;13.81;100.00;100333.22;4997737;28;20070;-78
2022/08/22 04:13:47;;;;;;;15.80;4.50;;;;;;;13.81;100.00;100328.69;4996852;28;20054;-78
2022/08/22 04:17:00;;;;;;;12.02;4.75;;;;;;;13.81;100.00;100322.41;4942765;28;20272;-77
2022/08/22 04:19:44;;;;;;;9.43;3.75;;;;;;;13.80;100.00;100327.00;4950070;28;20790;-77
2022/08/22 04:22:16;;;;;;;12.98;5.40;;;;;;;13.83;100.00;100331.97;4984086;28;20048;-77
2022/08/22 04:24:51;;;;;;;13.30;4.40;;;;;;;13.83;100.00;100323.88;5004303;28;20105;-78
2022/08/22 04:27:23;;;;;;;13.75;4.13;;;;;;;13.88;100.00;100323.25;4983586;28;20458;-77
2022/08/22 04:30:15;;;;;;;11.38;4.45;;;;;;;13.91;100.00;100328.25;4970093;28;20105;-78
2022/08/22 04:32:44;;;;;;;8.05;3.70;;;;;;;13.90;100.00;100323.06;4997792;28;20042;-77
2022/08/22 04:35:15;;;;;;;8.43;3.33;;;;;;;13.92;100.00;100323.66;5013087;28;20136;-77
2022/08/22 04:37:50;;;;;;;7.50;3.92;;;;;;;13.92;100.00;100315.56;4997951;28;20034;-77
2022/08/22 04:40:22;;;;;;;7.00;3.60;;;;;;;13.94;100.00;100316.19;4980629;28;20037;-78
2022/08/22 04:43:08;;;;;;;8.43;3.60;;;;;;;13.91;100.00;100317.44;5005275;28;20547;-78
2022/08/22 04:45:38;;;;;;;11.05;4.03;;;;;;;13.92;100.00;100319.13;4973579;28;20034;-77
2022/08/22 04:48:21;;;;;;;13.32;3.90;;;;;;;13.89;100.00;100315.97;4970227;28;20050;-78
2022/08/22 04:50:49;;;;;;;8.23;3.47;;;;;;;13.97;100.00;100327.44;4980024;28;20030;-77
2022/08/22 04:53:42;;;;;;;8.05;3.60;;;;;;;13.98;100.00;100317.44;4999494;28;20127;-77
2022/08/22 04:56:29;;;;;;;8.27;3.72;;;;;;;13.91;100.00;100309.31;4995481;28;20037;-77
2022/08/22 04:59:11;;;;;;;12.15;4.15;;;;;;;13.99;100.00;100317.22;4982189;28;20042;-77
2022/08/22 05:01:50;;;;;;;9.40;3.88;;;;;;;14.02;100.00;100319.50;4984958;28;20034;-77
2022/08/22 05:04:25;;;;;;;8.43;3.80;;;;;;;13.98;100.00;100318.28;4987334;28;20037;-78
2022/08/22 05:06:55;;;;;;;7.57;3.47;;;;;;;13.98;100.00;100301.22;5005934;28;20045;-77
2022/08/22 05:09:26;;;;;;;10.68;4.35;;;;;;;14.08;100.00;100313.28;4971644;28;20033;-77
2022/08/22 05:11:56;;;;;;;11.57;3.88;;;;;;;14.12;100.00;100313.69;4982294;28;20111;-77
2022/08/22 05:14:29;;;;;;;11.38;4.50;;;;;;;14.15;100.00;100317.84;5004520;28;20042;-77
2022/08/22 05:16:55;;;;;;;;;;;;;;;14.18;100.00;100325.53;5003018;28;20051;-74
2022/08/22 05:19:30;;;;;;;9.13;3.67;;;;;;;14.21;100.00;100322.41;4971760;28;19925;-77
2022/08/22 05:21:56;;;;;;;13.18;4.45;;;;;;;14.20;100.00;100316.16;4967574;28;20450;-78
2022/08/22 05:24:35;;;;;;;11.38;3.63;;;;;;;14.24;100.00;100322.81;4987810;28;20026;-77
2022/08/22 05:27:24;;;;;;;7.80;4.20;;;;;;;14.28;100.00;100323.22;4998330;28;20134;-78
2022/08/22 05:29:53;;;;;;;8.05;2.70;;;;;;;14.30;100.00;100316.56;4969628;28;20026;-78
2022/08/22 05:32:27;;;;;;;7.30;3.50;;;;;;;14.19;100.00;100294.75;4982540;28;21933;-78
2022/08/22 05:34:58;;;;;;;6.80;3.83;;;;;;;14.35;100.00;100315.13;4999459;28;20034;-77
2022/08/22 05:37:46;;;;;;;8.20;3.58;;;;;;;14.33;100.00;100312.59;4972296;28;20473;-77
2022/08/22 05:40:26;;;;;;;7.00;3.92;;;;;;;14.20;100.00;100288.28;5004099;28;20404;-77
2022/08/22 05:42:53;;;;;;;12.48;4.10;;;;;;;14.38;100.00;100317.38;5004317;28;20041;-75
2022/08/22 05:45:20;;;;;;;8.07;3.00;;;;;;;14.47;100.00;100318.81;4999880;28;20038;-78
2022/08/22 05:48:06;;;;;;;9.70;4.35;;;;;;;14.41;100.00;100316.97;5000270;28;20033;-77
2022/08/22 05:50:40;;;;;;;8.63;3.65;;;;;;;14.42;100.00;100327.59;4991279;28;20042;-78
2022/08/22 05:53:17;;;;;;;6.38;2.50;;;;;;;14.33;100.00;100309.06;4987081;28;20044;-76
2022/08/22 05:55:55;;;;;;;12.73;4.63;;;;;;;14.42;100.00;100324.88;4970324;28;20048;-76
2022/08/22 05:58:23;;;;;;;4.60;2.28;;;;;;;14.44;100.00;100320.06;5003354;28;20494;-76
2022/08/22 06:01:00;;;;;;;8.52;3.85;;;;;;;14.44;100.00;100325.47;4995968;28;20038;-76
2022/08/22 06:03:35;;;;;;;8.23;3.47;;;;;;;14.44;100.00;100316.53;4995976;28;20129;-77
2022/08/22 06:06:10;;;;;;;9.05;3.53;;;;;;;14.44;100.00;100306.53;4990232;28;20085;-76
2022/08/22 06:08:43;;;;;;;8.70;3.83;;;;;;;14.42;100.00;100313.19;4986797;28;20511;-76
2022/08/22 06:11:20;;;;;;;8.50;3.28;;;;;;;14.44;100.00;100325.47;4983745;28;20093;-76
2022/08/22 06:14:09;;;;;;;7.28;3.45;;;;;;;14.43;100.00;100320.28;5003427;28;20072;-75
2022/08/22 06:17:05;;;;;;;9.35;3.03;;;;;;;14.45;100.00;100318.22;4973425;28;20034;-76
2022/08/22 06:19:43;;;;;;;12.48;3.88;;;;;;;14.40;100.00;100310.72;4999071;28;20050;-76
2022/08/22 06:22:09;;;;;;;4.15;1.77;;;;;;;14.51;100.00;100318.19;4986160;28;20104;-76
2022/08/22 06:24:36;;;;;;;10.30;4.00;;;;;;;14.61;100.00;100311.53;4967126;28;20033;-76
2022/08/22 06:27:10;;;;;;;5.88;2.75;;;;;;;14.68;100.00;100320.44;4979562;28;20523;-75
2022/08/22 06:29:39;;;;;;;5.68;2.70;;;;;;;14.71;100.00;100322.72;5002891;28;20525;-76
2022/08/22 06:32:47;;;;;;;11.73;3.60;;;;;;;14.74;100.00;100327.72;5003288;28;20038;-76
2022/08/22 06:38:54;;;;;;;10.23;3.47;;;;;;;14.68;100.00;100317.75;4994065;28;20068;-76
2022/08/22 06:41:21;;;;;;;6.85;2.42;;;;;;;14.61;100.00;100317.78;4982795;28;20037;-76
2022/08/22 06:43:49;;;;;;;7.22;2.97;;;;;;;14.71;100.00;100333.53;4984208;28;20062;-76
2022/08/22 06:46:15;;;;;;;10.02;3.55;;;;;;;14.80;100.00;100337.69;4976301;28;20441;-76
2022/08/22 06:48:41;;;;;;;7.20;2.83;;;;;;;14.99;100.00;100341.38;4983828;28;20034;-75
2022/08/22 06:51:07;;;;;;;6.57;3.45;;;;;;;15.04;100.00;100332.59;5009842;28;20103;-75
2022/08/22 06:53:55;;;;;;;5.78;2.72;;;;;;;15.12;100.00;100343.19;4983619;28;20038;-76
2022/08/22 06:56:23;;;;;;;5.35;2.58;;;;;;;15.07;100.00;100345.69;5008693;28;20064;-77
2022/08/22 06:58:53;;;;;;;4.07;2.05;;;;;;;15.06;100.00;100342.16;4999391;28;20099;-77
2022/08/22 07:01:22;;;;;;;6.50;3.03;;;;;;;15.15;100.00;100351.69;4987105;28;20387;-77
2022/08/22 07:04:03;;;;;;;14.25;4.35;;;;;;;15.33;100.00;100337.44;4979845;28;20384;-76
2022/08/22 07:06:34;;;;;;;8.07;3.00;;;;;;;15.47;100.00;100346.31;5000278;28;20026;-76
2022/08/22 07:09:01;;;;;;;4.88;3.17;;;;;;;15.44;100.00;100327.78;4989876;28;20121;-76
2022/08/22 07:11:35;;;;;;;6.97;3.28;;;;;;;15.58;100.00;100347.50;5000039;28;20505;-76
2022/08/22 07:14:10;;;;;;;6.22;2.60;;;;;;;15.64;100.00;100356.63;4998094;28;20425;-76
2022/08/22 07:16:44;;;;;;;4.55;2.38;;;;;;;15.65;100.00;100344.75;4984816;28;20231;-75
2022/08/22 07:19:44;;;;;;;7.75;3.47;;;;;;;15.53;100.00;100333.75;5004597;28;20432;-75
2022/08/22 07:22:26;;;;;;;4.55;2.55;;;;;;;15.70;100.00;100362.03;4988830;28;20042;-75
2022/08/22 07:25:00;;;;;;;4.45;2.45;;;;;;;15.63;100.00;100357.69;4967669;28;20145;-77
2022/08/22 07:27:47;;;;;;;8.45;3.17;;;;;;;15.70;100.00;100359.34;5000678;28;20040;-76
2022/08/22 07:30:16;;;;;;;4.10;1.70;;;;;;;15.78;100.00;100364.47;5003911;28;20501;-76
2022/08/22 07:33:03;;;;;;;8.05;2.63;;;;;;;15.90;100.00;100364.59;4982097;28;20127;-75
2022/08/22 07:35:35;;;;;;;9.27;2.88;;;;;;;16.05;100.00;100362.38;5003160;28;20022;-76
2022/08/22 07:38:20;;;;;;;9.40;2.60;;;;;;;16.26;100.00;100350.31;4988646;28;20056;-75
2022/08/22 07:40:52;;;;;;;8.18;2.67;;;;;;;16.56;100.00;100359.63;4966213;28;20038;-75
2022/08/22 07:43:39;;;;;;;8.15;2.60;;;;;;;16.73;100.00;100359.88;4978115;28;20065;-76
2022/08/22 07:46:26;;;;;;;5.65;2.80;;;;;;;16.92;100.00;100364.25;4977263;28;20034;-76
2022/08/22 07:49:20;;;;;;;5.70;3.03;;;;;;;17.10;100.00;100358.81;4981914;28;20048;-76
2022/08/22 07:51:49;;;;;;;9.52;2.78;;;;;;;17.37;100.00;100358.47;4964532;28;20053;-76
2022/08/22 07:54:35;;;;;;;6.70;2.42;;;;;;;17.72;100.00;100361.28;4979059;28;20512;-75
2022/08/22 07:57:09;;;;;;;5.78;2.55;;;;;;;17.62;100.00;100365.63;4965552;28;20038;-76
2022/08/22 07:59:41;;;;;;;7.40;2.53;;;;;;;17.44;100.00;100364.63;4985475;28;20022;-76
2022/08/22 08:02:11;;;;;;;6.93;2.55;;;;;;;17.40;100.00;100374.31;4985903;28;20029;-76
2022/08/22 08:04:37;;;;;;;3.97;2.05;;;;;;;17.46;100.00;100381.53;4998175;28;20038;-76
2022/08/22 08:07:07;;;;;;;7.13;3.22;;;;;;;17.56;100.00;100376.38;4979825;28;20030;-76
2022/08/22 08:09:40;;;;;;;5.07;2.75;;;;;;;17.74;100.00;100377.38;4986076;28;20046;-84
2022/08/22 08:12:09;;;;;;;6.03;3.00;;;;;;;18.91;100.00;100373.91;4977432;28;20043;-86
2022/08/22 08:14:40;;;;;;;7.43;3.00;;;;;;;21.38;100.00;100391.38;4981913;28;20484;-86
2022/08/22 08:17:25;;;;;;;6.63;2.90;;;;;;;21.63;97.14;100371.66;4986592;28;20255;-85
2022/08/22 08:19:52;;;;;;;5.15;2.85;;;;;;;21.66;97.78;100378.53;4972846;28;20084;-85
2022/08/22 08:22:22;;;;;;;8.10;3.20;;;;;;;22.07;95.66;100373.41;4991863;28;20033;-85
2022/08/22 08:24:48;;;;;;;11.60;3.50;;;;;;;21.46;96.71;100381.84;4985769;28;20033;-85
2022/08/22 08:30:10;;;;;;;10.75;3.33;;;;;;;20.70;100.00;100400.84;5004328;28;20452;-86
2022/08/22 08:32:37;;;;;;;11.75;3.47;;;;;;;19.88;100.00;100400.34;5000303;28;20049;-85
2022/08/22 08:35:18;;;;;;;7.53;3.10;;;;;;;19.30;100.00;100394.06;5005573;28;20029;-86
2022/08/22 08:37:50;;;;;;;20.02;5.05;;;;;;;18.85;100.00;100402.13;4990696;28;20451;-86
2022/08/22 08:40:55;;;;;;;8.07;3.50;;;;;;;18.26;100.00;100363.16;4993873;28;20037;-85
2022/08/22 08:44:02;;;;;;;11.77;4.80;;;;;;;18.08;100.00;100397.59;5009436;28;20515;-86
2022/08/22 08:46:39;;;;;;;9.45;4.47;;;;;;;17.97;100.00;100396.50;4999706;28;20037;-87
2022/08/22 08:49:17;;;;;;;12.40;5.43;;;;;;;17.84;100.00;100391.28;4991157;28;20109;-86
2022/08/22 08:52:07;;;;;;;15.45;5.45;;;;;;;17.94;100.00;100407.84;4993985;28;20471;-86
2022/08/22 08:54:54;;;;;;;12.05;4.18;;;;;;;18.10;100.00;100409.06;4990238;28;20128;-87
2022/08/22 08:57:50;;;;;;;18.33;5.63;;;;;;;18.34;100.00;100403.66;5000220;28;20069;-86
2022/08/22 09:00:24;;;;;;;11.77;3.85;;;;;;;18.41;100.00;100407.91;4976351;28;20041;-89
2022/08/22 09:03:09;;;;;;;22.83;6.22;;;;;;;18.61;100.00;100417.63;4989032;28;20046;-87
2022/08/22 09:06:15;;;;;;;11.68;4.72;;;;;;;18.91;100.00;100403.88;4994827;28;20069;-87
2022/08/22 09:09:09;;;;;;;10.80;4.57;;;;;;;19.69;100.00;100407.13;5003773;28;20041;-85
2022/08/22 09:11:53;;;;;;;10.80;4.03;;;;;;;20.26;100.00;100406.16;5001502;28;20494;-87
2022/08/22 09:14:53;;;;;;;15.90;4.22;;;;;;;20.60;100.00;100399.63;5008586;28;20022;-87
2022/08/22 09:17:40;;;;;;;8.95;3.75;;;;;;;20.87;99.14;100401.63;5007106;28;20030;-87
2022/08/22 09:20:11;;;;;;;14.98;4.70;;;;;;;21.05;95.85;100408.72;5005612;28;20159;-87
2022/08/22 09:23:00;;;;;;;20.98;4.90;;;;;;;21.85;92.53;100378.97;4993900;28;20479;-87
2022/08/22 09:25:36;;;;;;;15.30;4.90;;;;;;;22.41;88.39;100389.56;4994879;28;20107;-88
2022/08/22 09:28:31;;;;;;;16.05;4.43;;;;;;;22.07;88.79;100406.25;4995093;28;20108;-88
2022/08/22 09:31:03;;;;;;;10.10;4.30;;;;;;;21.90;90.03;100393.53;4971916;28;20452;-88
2022/08/22 09:33:38;;;;;;;12.60;4.07;;;;;;;21.56;89.74;100403.03;5004225;28;20117;-87
2022/08/22 09:36:11;;;;;;;9.18;3.90;;;;;;;21.72;90.68;100419.38;4974395;28;20101;-88
2022/08/22 09:38:56;;;;;;;10.38;3.58;;;;;;;21.63;89.78;100404.47;4987046;28;20113;-88
2022/08/22 09:41:36;;;;;;;16.75;4.25;;;;;;;21.66;90.76;100419.56;4983334;28;20033;-89
2022/08/22 09:44:16;;;;;;;11.02;3.78;;;;;;;22.52;87.26;100418.69;4972297;28;20042;-89
2022/08/22 09:46:51;;;;;;;15.43;4.25;;;;;;;24.26;81.14;100416.56;4989288;28;20108;-89
2022/08/22 09:49:35;;;;;;;13.98;4.00;;;;;;;27.95;65.21;100418.22;4987592;28;20064;-90
2022/08/22 09:52:06;;;;;;;11.32;3.63;;;;;;;26.90;64.16;100422.91;5004464;28;20120;-89
2022/08/22 09:54:35;;;;;;;8.00;3.63;;;;;;;25.25;70.94;100418.91;4982280;28;20097;-85
2022/08/22 09:57:39;;;;;;;12.02;4.63;;;;;;;24.32;73.82;100393.53;4999726;28;20038;-90
2022/08/22 10:00:08;;;;;;;18.10;3.95;;;;;;;24.38;73.91;100421.81;4988348;28;20472;-89
2022/08/22 10:02:49;;;;;;;8.65;3.40;;;;;;;23.97;76.93;100422.59;4993167;28;20072;-92
2022/08/22 10:05:22;;;;;;;11.30;3.83;;;;;;;23.84;77.41;100403.94;5002734;28;20033;-88
2022/08/22 10:08:06;;;;;;;9.60;3.50;;;;;;;23.91;77.00;100423.72;4966399;28;20040;-88
2022/08/22 10:10:48;;;;;;;12.77;4.15;;;;;;;23.24;76.00;100409.78;4989128;28;20034;-89
2022/08/22 10:13:54;;;;;;;10.93;3.25;;;;;;;22.43;80.19;100409.31;5001639;28;20037;-89
2022/08/22 10:16:30;;;;;;;20.90;4.20;;;;;;;21.65;83.87;100421.47;5001594;28;20057;-89
2022/08/22 10:19:21;;;;;;;12.77;4.03;;;;;;;21.23;83.41;100423.97;4997245;28;20407;-90
2022/08/22 10:22:09;;;;;;;6.60;2.63;;;;;;;20.97;85.05;100431.00;5000348;28;20031;-89
2022/08/22 10:24:43;;;;;;;12.90;3.28;;;;;;;21.04;86.83;100426.19;4999866;28;20069;-89
2022/08/22 10:27:16;;;;;;;17.10;4.22;;;;;;;21.45;85.14;100426.72;4985579;28;20069;-89
2022/08/22 10:30:01;;;;;;;11.95;4.65;;;;;;;21.88;84.95;100434.00;5001721;28;20472;-89
2022/08/22 10:32:52;;;;;;;9.45;4.25;;;;;;;22.02;83.23;100428.13;4987748;28;20391;-89
2022/08/22 10:35:27;;;;;;;9.13;3.20;;;;;;;22.18;80.74;100432.66;5006134;28;20022;-88
2022/08/22 10:37:59;;;;;;;11.52;4.60;;;;;;;22.16;79.90;100424.69;4971596;28;20117;-85
2022/08/22 10:40:33;;;;;;;7.47;3.05;;;;;;;22.15;77.95;100419.50;4968039;28;20041;-86
2022/08/22 10:43:17;;;;;;;7.78;3.13;;;;;;;21.97;76.45;100428.09;4982975;28;20034;-89
2022/08/22 10:45:45;;;;;;;15.07;5.25;;;;;;;21.63;80.72;100444.72;4994640;28;20038;-90
2022/08/22 10:48:45;;;;;;;6.55;3.13;;;;;;;21.41;81.38;100442.00;4986725;28;20138;-88
2022/08/22 10:51:50;;;;;;;9.15;3.78;;;;;;;21.40;82.54;100432.13;4973025;28;20045;-88
2022/08/22 10:54:27;;;;;;;11.63;3.08;;;;;;;21.37;81.60;100433.44;4983990;28;20042;-89
2022/08/22 10:57:13;;;;;;;14.75;5.45;;;;;;;21.44;82.06;100427.81;4980753;28;20038;-89
2022/08/22 10:59:42;;;;;;;25.45;6.30;;;;;;;21.41;80.69;100437.34;4981206;28;20075;-90
2022/08/22 11:02:32;;;;;;;18.42;7.82;;;;;;;21.04;81.53;100416.09;4993016;28;20042;-89
2022/08/22 11:04:57;;;;;;;13.65;5.05;;;;;;;;;;5010835;28;20399;-91
2022/08/22 11:07:35;;;;;;;29.67;14.82;;;;;;;20.94;81.25;100420.59;5011146;28;20026;-89
2022/08/22 11:10:19;;;;;;;19.63;7.65;;;;;;;21.16;81.37;100448.75;5010174;28;20053;-88
2022/08/22 11:13:12;;;;;;;13.43;4.68;;;;;;;21.01;81.92;100423.94;5022479;28;20421;-87
2022/08/22 11:15:40;;;;;;;11.48;4.93;;;;;;;20.79;83.91;100430.22;4998004;28;20034;-87
2022/08/22 11:18:19;;;;;;;17.55;5.15;;;;;;;20.40;85.57;100430.16;5019858;28;20100;-89
2022/08/22 11:20:57;;;;;;;12.43;5.15;;;;;;;19.64;87.74;100386.00;5014000;28;20053;-88
2022/08/22 11:24:05;;;;;;;18.65;5.95;;;;;;;19.39;89.28;100440.84;5001648;28;20041;-89
2022/08/22 11:26:33;;;;;;;15.68;4.97;;;;;;;19.23;89.59;100401.53;4963846;28;20042;-89
2022/08/22 11:29:44;;;;;;;15.10;5.68;;;;;;;20.14;85.94;100398.91;5015353;28;20042;-89
2022/08/22 11:32:43;;;;;;;7.65;3.92;;;;;;;21.36;80.41;100428.22;5019049;28;20046;-89
2022/08/22 11:35:18;;;;;;;14.85;5.13;;;;;;;22.41;75.21;100436.13;5007969;28;20053;-88
2022/08/22 11:37:49;;;;;;;9.40;4.63;;;;;;;22.89;71.85;100431.53;5021670;28;20034;-89
2022/08/22 11:40:24;;;;;;;14.52;5.00;;;;;;;23.06;70.62;100432.22;5005373;28;20034;-89
2022/08/22 11:42:59;;;;;;;9.10;4.07;;;;;;;22.98;69.09;100441.75;4990892;28;20488;-90
2022/08/22 11:45:29;;;;;;;11.48;4.10;;;;;;;23.07;69.31;100433.84;4991980;28;20034;-89
2022/08/22 11:48:08;;;;;;;11.75;4.78;;;;;;;23.33;68.48;100420.25;4969177;28;20510;-89
2022/08/22 11:50:35;;;;;;;12.57;5.70;;;;;;;23.54;67.38;100438.41;4977837;28;20492;-89
2022/08/22 11:53:13;;;;;;;15.57;4.75;;;;;;;23.54;67.09;100427.44;4993923;28;20030;-90
2022/08/22 11:55:46;;;;;;;10.05;3.75;;;;;;;23.34;66.87;100417.25;4977947;28;20037;-90
2022/08/22 11:58:25;;;;;;;12.68;6.40;;;;;;;23.75;66.23;100427.53;5002804;28;20046;-90
2022/08/22 12:01:02;;;;;;;8.45;4.20;;;;;;;25.24;60.48;100418.06;4990352;28;20472;-89
2022/08/22 12:03:59;;;;;;;8.82;4.35;;;;;;;27.11;53.05;100402.22;5003306;28;20061;-89
2022/08/22 12:06:45;;;;;;;12.60;5.15;;;;;;;26.94;52.83;100413.75;5001905;28;20128;-91
2022/08/22 12:09:31;;;;;;;9.30;3.60;;;;;;;25.11;58.35;100415.88;5005645;28;20026;-90
2022/08/22 12:12:09;;;;;;;11.85;4.57;;;;;;;24.03;60.87;100405.06;5001547;28;20058;-89
2022/08/22 12:14:46;;;;;;;10.55;5.18;;;;;;;22.82;66.02;100385.16;5011504;28;20468;-90
2022/08/22 12:17:39;;;;;;;16.85;3.85;;;;;;;21.85;69.58;100398.94;4993294;28;20141;-89
2022/08/22 12:20:34;;;;;;;6.75;3.72;;;;;;;22.06;69.66;100399.13;5001554;28;20045;-89
2022/08/22 12:23:15;;;;;;;7.03;4.35;;;;;;;23.17;66.28;100408.38;4993060;28;20041;-89
2022/08/22 12:26:10;;;;;;;12.02;4.45;;;;;;;23.91;62.92;100408.06;5002745;28;20030;-89
2022/08/22 12:28:51;;;;;;;10.80;4.93;;;;;;;24.63;61.23;100410.78;4999099;28;20046;-88